Time;durP1;ratioP1;P1;durP2;ratioP2;P2;SDS_P1;SDS_P2;PMS_P1;PMS_P2;Temp;Humidity;BMP_temperature;BMP_pressure;BME280_temperature;BME280_humidity;BME280_pressure;Samples;Min_cycle;Max_cycle;Signal;HPM_P1;HPM_P2
2023/01/30 00:00:51;;;;;;;26.60;17.50;;;;;;;1.22;91.28;100166.16;107590;1254;80018;-55
2023/01/30 00:03:29;;;;;;;28.00;17.50;;;;;;;1.27;91.06;100162.90;107546;1253;82534;-53
2023/01/30 00:06:03;;;;;;;25.00;16.70;;;;;;;1.29;91.14;100159.69;107555;1253;99264;-54
2023/01/30 00:08:39;;;;;;;23.70;16.50;;;;;;;1.29;91.27;100153.33;107538;1256;88242;-55
2023/01/30 00:11:19;;;;;;;25.00;16.60;;;;;;;1.31;91.22;100149.80;107538;1256;94621;-54
2023/01/30 00:13:55;;;;;;;25.30;17.20;;;;;;;1.34;91.21;100140.29;107519;1253;82242;-55
2023/01/30 00:16:31;;;;;;;25.20;16.30;;;;;;;1.33;91.08;100131.83;107569;1252;83491;-54
2023/01/30 00:19:10;;;;;;;26.60;17.00;;;;;;;1.34;91.11;100121.14;107534;1253;99922;-54
2023/01/30 00:21:48;;;;;;;23.30;16.20;;;;;;;1.34;91.02;100114.02;107569;1252;88756;-56
2023/01/30 00:24:29;;;;;;;22.10;15.30;;;;;;;1.30;91.11;100112.61;107565;1253;95201;-56
2023/01/30 00:27:10;;;;;;;24.90;15.50;;;;;;;1.31;91.09;100106.17;107586;1253;80977;-56
2023/01/30 00:29:46;;;;;;;22.80;15.90;;;;;;;1.34;91.19;100099.45;107599;1253;82087;-54
2023/01/30 00:32:19;;;;;;;22.70;16.10;;;;;;;1.37;91.12;100097.11;107579;1253;99674;-54
2023/01/30 00:34:58;;;;;;;23.10;15.80;;;;;;;1.33;91.07;100087.45;107607;1256;89062;-56
2023/01/30 00:37:34;;;;;;;22.30;14.40;;;;;;;1.35;91.19;100082.87;107587;1254;95957;-57
2023/01/30 00:40:12;;;;;;;21.60;15.50;;;;;;;1.33;91.08;100076.20;107598;1253;81365;-56
2023/01/30 00:48:37;;;;;;;22.30;15.40;;;;;;;1.34;91.20;100061.67;107566;1253;87341;-57
2023/01/30 00:51:09;;;;;;;21.60;14.80;;;;;;;1.35;91.07;100053.08;107555;1253;94982;-56
2023/01/30 00:53:42;;;;;;;21.70;14.70;;;;;;;1.35;91.20;100046.35;107547;1253;80767;-56
2023/01/30 00:56:20;;;;;;;21.00;15.40;;;;;;;1.31;91.27;100037.72;107585;1256;83205;-57
2023/01/30 00:58:54;;;;;;;20.90;14.30;;;;;;;1.29;91.31;100032.91;107538;1253;100151;-57
2023/01/30 01:01:29;;;;;;;23.60;15.70;;;;;;;1.33;91.32;100027.75;107573;1256;88315;-57
2023/01/30 01:04:13;;;;;;;21.40;14.30;;;;;;;1.34;91.18;100019.35;107592;1253;95389;-57
2023/01/30 01:06:51;;;;;;;22.10;14.50;;;;;;;1.34;91.30;100009.55;107552;1253;80416;-54
2023/01/30 01:09:36;;;;;;;20.40;14.70;;;;;;;1.34;91.22;100001.60;107582;1253;81907;-55
2023/01/30 01:12:09;;;;;;;20.40;14.30;;;;;;;1.35;91.18;99993.52;107616;1253;99875;-56
2023/01/30 01:14:41;;;;;;;20.60;14.30;;;;;;;1.36;91.12;99982.59;107619;1253;86981;-55
2023/01/30 01:17:24;;;;;;;19.50;13.20;;;;;;;1.37;91.18;99977.56;107579;1254;91643;-54
2023/01/30 01:20:02;;;;;;;20.70;13.90;;;;;;;1.36;91.10;99962.54;107545;1253;80567;-54
2023/01/30 01:22:39;;;;;;;17.60;12.20;;;;;;;1.37;91.16;99953.75;107598;1253;81662;-54
2023/01/30 01:25:12;;;;;;;19.50;12.50;;;;;;;1.38;90.98;99950.78;107586;1253;98577;-56
2023/01/30 01:27:49;;;;;;;16.60;11.80;;;;;;;1.38;90.96;99944.02;107565;1252;87157;-56
2023/01/30 01:30:22;;;;;;;17.00;12.10;;;;;;;1.37;90.82;99939.77;107592;1253;95258;-57
2023/01/30 01:33:02;;;;;;;16.90;12.00;;;;;;;1.37;90.93;99934.98;107556;1253;79539;-56
2023/01/30 01:35:46;;;;;;;17.90;11.30;;;;;;;1.37;90.76;99929.07;107455;1253;85040;-56
2023/01/30 01:38:25;;;;;;;15.80;11.30;;;;;;;1.38;90.87;99927.36;107573;1253;98418;-57
2023/01/30 01:41:01;;;;;;;14.90;10.70;;;;;;;1.38;90.82;99922.59;107593;1253;87707;-56
2023/01/30 01:43:53;;;;;;;15.70;10.90;;;;;;;1.35;90.82;99919.33;107579;1253;94854;-57
2023/01/30 01:46:33;;;;;;;16.50;10.70;;;;;;;1.32;90.83;99911.29;107530;1254;81563;-55
2023/01/30 01:49:15;;;;;;;15.90;10.40;;;;;;;1.31;90.80;99903.41;107625;1252;81838;-55
2023/01/30 01:51:54;;;;;;;14.90;10.00;;;;;;;1.30;90.80;99894.60;107582;1253;98572;-54
2023/01/30 01:54:33;;;;;;;13.60;9.70;;;;;;;1.28;90.78;99887.02;107565;1256;89522;-56
2023/01/30 01:57:15;;;;;;;15.50;10.40;;;;;;;1.27;90.85;99883.73;107611;1253;94288;-55
2023/01/30 01:59:57;;;;;;;13.90;9.90;;;;;;;1.26;90.83;99879.56;107478;1252;80136;-57
2023/01/30 02:02:31;;;;;;;12.40;9.30;;;;;;;1.28;90.81;99878.14;107581;1253;83781;-57
2023/01/30 02:05:11;;;;;;;13.40;9.90;;;;;;;1.28;90.86;99869.85;107580;1253;99835;-54
2023/01/30 02:07:47;;;;;;;13.70;9.80;;;;;;;1.27;90.92;99866.52;107553;1253;89114;-55
2023/01/30 02:10:22;;;;;;;14.00;10.10;;;;;;;1.30;90.89;99865.02;107569;1253;95751;-56
2023/01/30 02:13:03;;;;;;;14.80;9.90;;;;;;;1.30;90.80;99865.34;107551;1253;81815;-57
2023/01/30 02:15:46;;;;;;;12.60;9.20;;;;;;;1.32;90.75;99860.90;107551;1253;81762;-57
2023/01/30 02:18:23;;;;;;;12.90;9.20;;;;;;;1.27;90.86;99849.72;107540;1256;98954;-57
2023/01/30 02:21:24;;;;;;;12.80;9.20;;;;;;;1.29;90.71;99853.55;107582;1253;85838;-56
2023/01/30 02:24:23;;;;;;;12.60;8.70;;;;;;;1.25;90.78;99845.23;107540;1252;92461;-56
2023/01/30 02:27:34;;;;;;;14.10;8.70;;;;;;;1.28;90.80;99845.33;107555;1253;81659;-54
2023/01/30 02:30:58;;;;;;;13.10;8.50;;;;;;;1.33;90.73;99848.89;107567;1253;80199;-58
2023/01/30 02:33:40;;;;;;;13.50;9.90;;;;;;;1.38;90.61;99845.66;107586;1253;99595;-58
2023/01/30 02:36:26;;;;;;;13.70;9.10;;;;;;;1.42;90.50;99837.11;107578;1253;88755;-54
2023/01/30 02:39:17;;;;;;;12.40;8.90;;;;;;;1.41;90.44;99827.61;107546;1253;94595;-54
2023/01/30 02:42:00;;;;;;;14.50;9.90;;;;;;;1.42;90.34;99820.77;107594;1256;76990;-56
2023/01/30 02:44:39;;;;;;;13.30;9.20;;;;;;;1.39;90.13;99816.10;107617;1253;83240;-57
2023/01/30 02:47:27;;;;;;;15.10;10.00;;;;;;;1.35;90.12;99805.46;107577;1256;98069;-57
2023/01/30 02:50:10;;;;;;;16.60;10.70;;;;;;;1.30;90.10;99802.72;107450;1253;88530;-54
2023/01/30 02:52:51;;;;;;;15.70;10.70;;;;;;;1.29;90.16;99796.32;107595;1253;94367;-55
2023/01/30 02:55:28;;;;;;;17.00;11.50;;;;;;;1.28;89.96;99793.73;107595;1253;81151;-57
2023/01/30 02:58:05;;;;;;;15.30;11.30;;;;;;;1.28;89.91;99790.73;107547;1253;81431;-57
2023/01/30 03:01:02;;;;;;;18.60;11.70;;;;;;;1.23;89.86;99781.59;107380;1254;100348;-55
2023/01/30 03:04:03;;;;;;;16.00;10.60;;;;;;;1.24;89.74;99773.94;107342;1254;89215;-54
2023/01/30 03:07:02;;;;;;;16.20;9.90;;;;;;;1.24;89.69;99773.77;107380;1254;95099;-56
2023/01/30 03:09:46;;;;;;;15.80;10.90;;;;;;;1.26;89.51;99763.09;107382;1254;79117;-55
2023/01/30 03:12:39;;;;;;;15.50;10.70;;;;;;;1.26;89.31;99755.97;107403;1258;83771;-54
2023/01/30 03:15:19;;;;;;;14.40;10.80;;;;;;;1.20;89.31;99751.90;107404;1254;97286;-57
2023/01/30 03:17:56;;;;;;;17.50;10.90;;;;;;;1.15;89.28;99744.60;107337;1254;88292;-57
2023/01/30 03:20:38;;;;;;;16.50;11.50;;;;;;;1.07;89.23;99735.77;107400;1254;95130;-58
2023/01/30 03:23:13;;;;;;;18.20;11.00;;;;;;;1.02;89.18;99722.11;107379;1258;80795;-57
2023/01/30 03:25:49;;;;;;;14.80;10.60;;;;;;;1.05;89.24;99710.77;107391;1254;82274;-55
2023/01/30 03:28:26;;;;;;;17.10;11.10;;;;;;;1.03;89.22;99702.66;107380;1259;100026;-54
2023/01/30 03:31:05;;;;;;;18.30;11.40;;;;;;;1.06;89.12;99693.89;107444;1254;85603;-57
2023/01/30 03:33:45;;;;;;;20.90;12.60;;;;;;;1.05;89.18;99689.70;107352;1259;95024;-57
2023/01/30 03:36:19;;;;;;;19.20;12.20;;;;;;;1.04;89.26;99678.98;107400;1254;80196;-55
2023/01/30 03:38:58;;;;;;;18.50;12.10;;;;;;;1.05;89.24;99675.86;107433;1254;82333;-56
2023/01/30 03:41:37;;;;;;;20.60;13.00;;;;;;;1.06;89.37;99666.40;107367;1254;97408;-56
2023/01/30 03:44:21;;;;;;;19.80;12.20;;;;;;;1.08;89.23;99667.56;107372;1254;88705;-56
2023/01/30 03:47:01;;;;;;;19.50;13.40;;;;;;;1.08;89.38;99657.87;106990;1254;499698;-57
2023/01/30 03:49:42;;;;;;;19.90;12.70;;;;;;;1.06;89.41;99652.91;107392;1259;80545;-56
2023/01/30 03:52:25;;;;;;;18.80;12.50;;;;;;;1.02;89.45;99650.29;107355;1254;82906;-53
2023/01/30 03:55:04;;;;;;;17.80;12.60;;;;;;;0.98;89.52;99642.84;107401;1255;98104;-54
2023/01/30 03:57:42;;;;;;;20.60;12.60;;;;;;;0.99;89.60;99639.25;107234;1256;87520;-53
2023/01/30 04:00:18;;;;;;;17.00;12.10;;;;;;;0.94;89.59;99636.51;107370;1255;95111;-54
2023/01/30 04:02:53;;;;;;;18.60;12.40;;;;;;;0.91;89.73;99632.90;107380;1254;79929;-54
2023/01/30 04:05:34;;;;;;;17.50;11.80;;;;;;;0.87;89.86;99626.77;107382;1254;81438;-55
2023/01/30 04:08:19;;;;;;;18.80;12.50;;;;;;;0.89;89.84;99616.46;107345;1256;98396;-54
2023/01/30 04:10:58;;;;;;;19.30;12.50;;;;;;;0.90;89.91;99613.17;107414;1259;89702;-56
2023/01/30 04:13:35;;;;;;;20.60;13.60;;;;;;;0.92;89.80;99605.36;107342;1254;93425;-57
2023/01/30 04:16:24;;;;;;;20.30;13.60;;;;;;;0.94;89.88;99602.27;107407;1255;80587;-57
2023/01/30 04:19:04;;;;;;;20.80;12.70;;;;;;;0.94;89.74;99594.69;107434;1259;81696;-57
2023/01/30 04:21:44;;;;;;;19.40;13.10;;;;;;;0.88;89.80;99588.04;107410;1257;100549;-54
2023/01/30 04:24:21;;;;;;;20.70;13.80;;;;;;;0.84;89.78;99577.80;107404;1254;88867;-54
2023/01/30 04:26:58;;;;;;;22.50;14.20;;;;;;;0.81;89.74;99569.34;107214;1260;94242;-54
2023/01/30 04:29:29;;;;;;;21.10;13.20;;;;;;;0.81;89.59;99560.02;107387;1255;79932;-55
2023/01/30 04:32:06;;;;;;;20.60;12.90;;;;;;;0.75;89.62;99556.48;107388;1254;81765;-56
2023/01/30 04:34:44;;;;;;;22.70;13.60;;;;;;;0.76;89.71;99558.91;107371;1254;99290;-55
2023/01/30 04:37:21;;;;;;;20.80;13.20;;;;;;;0.74;89.65;99555.38;107325;1259;88444;-54
2023/01/30 04:39:55;;;;;;;19.00;13.30;;;;;;;0.74;89.60;99545.09;107367;1259;94693;-55
2023/01/30 04:42:37;;;;;;;21.00;13.10;;;;;;;0.70;89.71;99540.92;107321;1254;81640;-56
2023/01/30 04:45:18;;;;;;;21.30;13.30;;;;;;;0.71;89.60;99524.84;107366;1259;82918;-55
2023/01/30 04:47:57;;;;;;;21.00;12.60;;;;;;;0.75;89.40;99518.40;107344;1256;98897;-54
2023/01/30 04:50:33;;;;;;;19.50;12.10;;;;;;;0.69;89.47;99517.26;107402;1254;88952;-56
2023/01/30 04:53:10;;;;;;;20.60;13.30;;;;;;;0.63;89.29;99520.88;107348;1256;94941;-57
2023/01/30 04:55:49;;;;;;;19.40;12.10;;;;;;;0.64;89.26;99519.13;107380;1254;79735;-53
2023/01/30 04:58:25;;;;;;;18.20;11.40;;;;;;;0.60;89.39;99519.65;107395;1259;83405;-53
2023/01/30 05:01:13;;;;;;;17.00;11.70;;;;;;;0.58;89.39;99512.55;107393;1254;98272;-56
2023/01/30 05:03:55;;;;;;;18.40;10.90;;;;;;;0.60;89.32;99509.05;107388;1256;89561;-55
2023/01/30 05:06:29;;;;;;;16.30;10.20;;;;;;;0.58;89.26;99502.63;107417;1259;94838;-55
2023/01/30 05:09:09;;;;;;;16.80;10.70;;;;;;;0.57;89.30;99494.14;107421;1254;79118;-55
2023/01/30 05:11:45;;;;;;;13.90;9.20;;;;;;;0.57;89.22;99486.10;107446;1254;80572;-53
2023/01/30 05:14:21;;;;;;;15.10;10.70;;;;;;;0.56;89.06;99483.55;107392;1254;98483;-53
2023/01/30 05:17:02;;;;;;;16.20;10.10;;;;;;;0.58;89.15;99474.33;107379;1255;86408;-55
2023/01/30 05:19:43;;;;;;;14.40;9.50;;;;;;;0.58;89.23;99462.13;107315;1259;94543;-55
2023/01/30 05:22:24;;;;;;;16.00;10.00;;;;;;;0.55;89.24;99450.40;107317;1255;79808;-55
2023/01/30 05:25:04;;;;;;;16.60;11.00;;;;;;;0.55;89.10;99450.50;107357;1255;82363;-53
2023/01/30 05:27:43;;;;;;;14.20;9.40;;;;;;;0.58;88.97;99444.23;107389;1255;98243;-53
2023/01/30 05:30:17;;;;;;;14.00;9.70;;;;;;;0.55;89.04;99439.67;107337;1256;89206;-56
2023/01/30 05:32:59;;;;;;;16.20;10.20;;;;;;;0.56;88.92;99435.03;107341;1254;94667;-55
2023/01/30 05:35:35;;;;;;;14.40;9.20;;;;;;;0.54;88.94;99426.58;107372;1256;80823;-56
2023/01/30 05:38:19;;;;;;;17.10;10.00;;;;;;;0.50;88.85;99427.83;107378;1259;80806;-55
2023/01/30 05:41:00;;;;;;;13.20;9.40;;;;;;;0.46;88.97;99430.91;107393;1255;96436;-53
2023/01/30 05:43:32;;;;;;;14.80;9.50;;;;;;;0.48;88.90;99431.77;107403;1255;88148;-53
2023/01/30 05:46:12;;;;;;;14.90;9.90;;;;;;;0.51;88.98;99424.92;107386;1254;92990;-55
2023/01/30 05:48:52;;;;;;;16.60;9.40;;;;;;;0.52;88.85;99409.63;107409;1256;81235;-54
2023/01/30 05:51:33;;;;;;;14.60;9.60;;;;;;;0.54;88.77;99405.42;107427;1254;82382;-56
2023/01/30 05:54:04;;;;;;;14.30;9.30;;;;;;;0.53;88.75;99404.29;107361;1255;96754;-55
2023/01/30 05:56:50;;;;;;;13.00;8.90;;;;;;;0.54;88.70;99405.86;107432;1257;88189;-55
2023/01/30 05:59:32;;;;;;;12.60;9.00;;;;;;;0.56;88.70;99399.44;107402;1255;95151;-53
2023/01/30 06:02:09;;;;;;;14.40;9.00;;;;;;;0.58;88.73;99394.77;107324;1259;79159;-56
2023/01/30 06:04:47;;;;;;;16.80;9.40;;;;;;;0.56;88.56;99391.83;107465;1254;82503;-51
2023/01/30 06:07:30;;;;;;;14.60;9.50;;;;;;;0.51;88.42;99382.52;107389;1259;99643;-53
2023/01/30 06:10:14;;;;;;;15.00;10.20;;;;;;;0.50;88.41;99374.89;107360;1259;87751;-53
2023/01/30 06:12:49;;;;;;;15.10;9.70;;;;;;;0.47;88.37;99363.01;107350;1254;96046;-55
2023/01/30 06:15:29;;;;;;;16.60;9.90;;;;;;;0.47;88.42;99356.73;107403;1256;79197;-52
2023/01/30 06:18:06;;;;;;;14.90;9.30;;;;;;;0.46;88.42;99361.27;107346;1256;82814;-55
2023/01/30 06:20:48;;;;;;;14.50;9.50;;;;;;;0.51;88.34;99362.52;107375;1257;99400;-54
2023/01/30 06:23:22;;;;;;;14.80;9.30;;;;;;;0.51;88.26;99364.11;107393;1257;87685;-55
2023/01/30 06:25:59;;;;;;;14.70;9.40;;;;;;;0.52;88.38;99367.94;107402;1254;95767;-55
2023/01/30 06:28:39;;;;;;;14.70;9.80;;;;;;;0.50;88.44;99365.65;107347;1259;81741;-56
2023/01/30 06:31:17;;;;;;;16.00;10.30;;;;;;;0.54;88.38;99362.80;107396;1255;83282;-52
2023/01/30 06:33:54;;;;;;;15.10;9.70;;;;;;;0.56;87.92;99363.61;107426;1255;98915;-53
2023/01/30 06:36:28;;;;;;;14.50;10.20;;;;;;;0.54;87.90;99351.95;107473;1259;88365;-55
2023/01/30 06:39:01;;;;;;;16.20;10.20;;;;;;;0.52;87.84;99347.88;107464;1256;95324;-55
2023/01/30 06:41:33;;;;;;;17.00;10.70;;;;;;;0.49;87.67;99346.46;107320;1256;81627;-53
2023/01/30 06:44:10;;;;;;;15.60;10.50;;;;;;;0.46;87.68;99343.41;107386;1254;83041;-53
2023/01/30 06:46:47;;;;;;;14.40;10.10;;;;;;;0.44;87.40;99334.21;107567;1253;100012;-54
2023/01/30 06:49:31;;;;;;;15.40;10.90;;;;;;;0.43;87.46;99328.27;107542;1256;88890;-56
2023/01/30 06:52:05;;;;;;;15.90;9.70;;;;;;;0.43;87.50;99329.66;107533;1256;95213;-54
2023/01/30 06:54:40;;;;;;;16.70;10.60;;;;;;;0.45;87.36;99331.41;107585;1253;81199;-55
2023/01/30 06:57:11;;;;;;;12.60;8.20;;;;;;;0.50;87.37;99327.73;107569;1253;81982;-59
2023/01/30 06:59:50;;;;;;;14.50;11.00;;;;;;;0.53;87.28;99324.95;107582;1253;100212;-53
2023/01/30 07:02:29;;;;;;;16.20;11.20;;;;;;;0.59;87.05;99323.70;107564;1253;87616;-53
2023/01/30 07:05:04;;;;;;;16.30;10.30;;;;;;;0.61;86.85;99314.63;107572;1256;95275;-55
2023/01/30 07:07:37;;;;;;;16.30;10.40;;;;;;;0.59;86.96;99317.45;107559;1253;79063;-55
2023/01/30 07:10:12;;;;;;;15.10;10.40;;;;;;;0.55;86.81;99309.51;107590;1253;83554;-53
2023/01/30 07:12:45;;;;;;;16.70;11.20;;;;;;;0.55;86.43;99302.77;107566;1254;98012;-53
2023/01/30 07:15:20;;;;;;;15.30;10.80;;;;;;;0.55;86.72;99298.91;107582;1253;88856;-56
2023/01/30 07:17:59;;;;;;;14.70;10.30;;;;;;;0.60;86.67;99291.69;107576;1252;95328;-56
2023/01/30 07:20:40;;;;;;;15.90;10.70;;;;;;;0.66;86.78;99293.59;107630;1254;81252;-53
2023/01/30 07:23:17;;;;;;;15.80;10.30;;;;;;;0.69;86.76;99287.45;107394;1254;83235;-53
2023/01/30 07:25:57;;;;;;;16.50;11.00;;;;;;;0.68;86.54;99276.44;107593;1254;99861;-55
2023/01/30 07:28:36;;;;;;;16.60;11.40;;;;;;;0.67;86.59;99272.11;107595;1252;87591;-55
2023/01/30 07:31:16;;;;;;;16.70;11.50;;;;;;;0.64;86.71;99264.24;107561;1253;95963;-57
2023/01/30 07:33:49;;;;;;;20.10;12.00;;;;;;;0.61;86.77;99259.91;107581;1254;79340;-56
2023/01/30 07:36:27;;;;;;;16.80;11.10;;;;;;;0.50;87.00;99262.73;107528;1254;82146;-53
2023/01/30 07:39:08;;;;;;;19.20;12.60;;;;;;;0.44;87.27;99260.50;107519;1256;99225;-54
2023/01/30 07:41:44;;;;;;;18.80;12.40;;;;;;;0.47;87.40;99263.45;107591;1254;89212;-59
2023/01/30 07:44:22;;;;;;;19.60;12.10;;;;;;;0.47;87.41;99252.75;107577;1252;94721;-55
2023/01/30 07:46:53;;;;;;;17.60;11.70;;;;;;;0.46;87.57;99246.17;107591;1253;79137;-59
2023/01/30 07:49:25;;;;;;;19.20;11.90;;;;;;;0.46;87.66;99247.44;107565;1253;83187;-55
2023/01/30 07:52:01;;;;;;;17.80;12.00;;;;;;;0.44;87.80;99244.37;107583;1256;97581;-55
2023/01/30 07:54:38;;;;;;;18.90;12.00;;;;;;;0.44;87.93;99243.34;107606;1253;87826;-53
2023/01/30 07:57:15;;;;;;;18.00;12.50;;;;;;;0.39;88.04;99241.23;107562;1253;94738;-52
2023/01/30 07:59:54;;;;;;;20.40;12.60;;;;;;;0.44;88.21;99236.14;107578;1256;81211;-54
2023/01/30 08:02:27;;;;;;;21.40;13.30;;;;;;;0.45;88.20;99231.16;107573;1253;82063;-54
2023/01/30 08:05:02;;;;;;;17.70;13.10;;;;;;;0.48;88.33;99225.95;107598;1253;100536;-54
2023/01/30 08:07:36;;;;;;;19.10;13.30;;;;;;;0.50;88.40;99226.05;107527;1253;88464;-56
2023/01/30 08:10:11;;;;;;;20.20;12.80;;;;;;;0.49;88.51;99225.70;107587;1253;93875;-53
2023/01/30 08:12:52;;;;;;;21.40;13.60;;;;;;;0.41;88.64;99222.09;107548;1254;79556;-53
2023/01/30 08:15:30;;;;;;;20.40;13.20;;;;;;;0.43;88.64;99212.88;107566;1256;82238;-52
2023/01/30 08:18:03;;;;;;;17.90;12.30;;;;;;;0.43;88.75;99211.61;107547;1253;99308;-52
2023/01/30 08:20:43;;;;;;;20.10;13.30;;;;;;;0.51;88.71;99209.38;107556;1254;89157;-52
2023/01/30 08:23:15;;;;;;;19.90;13.30;;;;;;;0.53;88.82;99207.52;107549;1253;92516;-52
2023/01/30 08:25:57;;;;;;;19.10;13.50;;;;;;;0.55;88.70;99200.20;107579;1255;77697;-55
2023/01/30 08:28:29;;;;;;;21.10;14.60;;;;;;;0.59;88.74;99206.19;107542;1256;83353;-56
2023/01/30 08:31:10;;;;;;;24.60;14.70;;;;;;;0.63;88.74;99199.80;107573;1256;99665;-56
2023/01/30 08:33:43;;;;;;;19.40;13.40;;;;;;;0.57;88.78;99199.09;107571;1253;89120;-57
2023/01/30 08:36:19;;;;;;;22.70;14.60;;;;;;;0.52;88.67;99196.30;107571;1254;94549;-56
2023/01/30 08:38:55;;;;;;;25.30;14.50;;;;;;;0.51;88.89;99193.43;107540;1254;79619;-55
2023/01/30 08:41:35;;;;;;;23.70;15.20;;;;;;;0.48;88.94;99193.75;107584;1253;82040;-56
2023/01/30 08:44:08;;;;;;;23.30;14.40;;;;;;;0.43;88.95;99191.25;107561;1253;98606;-56
2023/01/30 08:46:43;;;;;;;22.00;14.50;;;;;;;0.43;89.04;99185.68;107607;1256;87931;-54
2023/01/30 08:49:17;;;;;;;22.80;15.60;;;;;;;0.39;89.13;99179.40;107570;1256;95340;-54
2023/01/30 08:52:16;;;;;;;22.60;14.90;;;;;;;0.42;89.14;99176.64;107549;1253;78949;-55
2023/01/30 08:55:01;;;;;;;22.90;14.80;;;;;;;0.45;89.22;99169.46;107580;1253;82619;-54
2023/01/30 08:57:34;;;;;;;24.90;15.80;;;;;;;0.45;89.34;99164.59;107539;1254;98734;-54
2023/01/30 09:00:14;;;;;;;22.50;14.20;;;;;;;0.48;89.30;99158.16;107589;1254;86485;-55
2023/01/30 09:02:53;;;;;;;21.70;14.90;;;;;;;0.50;89.45;99156.51;107549;1254;95627;-56
2023/01/30 09:05:29;;;;;;;21.50;15.10;;;;;;;0.58;89.38;99159.35;107385;1257;81767;-55
2023/01/30 09:08:04;;;;;;;21.20;14.60;;;;;;;0.69;89.29;99155.39;107546;1254;82684;-56
2023/01/30 09:10:40;;;;;;;20.60;14.80;;;;;;;0.72;89.37;99148.08;107365;1253;99660;-54
2023/01/30 09:13:22;;;;;;;21.80;15.30;;;;;;;0.75;89.18;99139.75;107573;1253;88433;-54
2023/01/30 09:16:03;;;;;;;23.30;15.90;;;;;;;0.71;89.27;99140.73;107555;1253;94740;-54
2023/01/30 09:18:39;;;;;;;20.40;14.10;;;;;;;0.76;89.14;99139.83;107547;1253;81702;-52
2023/01/30 09:21:13;;;;;;;21.00;15.00;;;;;;;0.74;89.19;99133.34;107553;1256;83159;-52
2023/01/30 09:23:52;;;;;;;21.80;15.10;;;;;;;0.66;89.26;99124.95;107544;1256;99739;-52
2023/01/30 09:26:23;;;;;;;26.10;16.50;;;;;;;0.75;89.24;99125.23;107545;1256;88327;-54
2023/01/30 09:29:00;;;;;;;21.90;15.50;;;;;;;0.82;89.07;99122.71;107531;1253;95808;-54
2023/01/30 09:31:34;;;;;;;21.50;15.60;;;;;;;0.81;89.06;99118.05;107572;1254;79539;-52
2023/01/30 09:34:08;;;;;;;22.10;15.30;;;;;;;0.79;89.11;99120.17;107592;1254;82902;-53
2023/01/30 09:36:45;;;;;;;21.70;15.40;;;;;;;0.71;89.08;99111.64;107586;1254;98314;-52
2023/01/30 09:39:26;;;;;;;22.50;15.40;;;;;;;0.70;88.94;99110.02;107589;1256;86948;-53
2023/01/30 09:42:46;;;;;;;25.20;15.60;;;;;;;0.68;88.88;99104.23;107548;1252;93404;-53
2023/01/30 09:45:58;;;;;;;21.50;14.70;;;;;;;0.68;89.10;99099.19;107198;1254;81473;-55
2023/01/30 09:48:41;;;;;;;23.40;15.40;;;;;;;0.70;89.19;99100.27;107591;1253;81397;-56
2023/01/30 09:51:42;;;;;;;24.50;15.80;;;;;;;0.71;89.23;99090.89;107586;1254;99455;-56
2023/01/30 09:54:41;;;;;;;22.60;16.00;;;;;;;0.73;89.33;99081.14;107517;1253;88381;-57
2023/01/30 09:57:19;;;;;;;24.40;15.70;;;;;;;0.76;89.35;99070.95;107571;1254;94393;-54
2023/01/30 10:00:04;;;;;;;25.40;16.30;;;;;;;0.82;89.37;99065.85;107575;1254;79998;-56
2023/01/30 10:02:54;;;;;;;22.00;15.40;;;;;;;0.87;89.43;99068.52;107577;1254;83588;-56
2023/01/30 10:05:44;;;;;;;21.00;15.10;;;;;;;0.92;89.41;99067.77;107631;1254;99938;-56
2023/01/30 10:08:45;;;;;;;23.20;15.90;;;;;;;0.96;89.29;99063.33;107572;1254;87048;-56
2023/01/30 10:11:39;;;;;;;23.90;16.00;;;;;;;0.95;89.38;99056.81;107569;1254;93690;-57
2023/01/30 10:14:37;;;;;;;22.80;15.50;;;;;;;0.96;89.23;99051.63;107576;1254;79265;-57
2023/01/30 10:17:31;;;;;;;24.10;15.50;;;;;;;0.92;89.33;99039.81;107613;1253;81385;-57
2023/01/30 10:20:31;;;;;;;23.80;16.10;;;;;;;0.95;89.46;99034.30;107574;1254;100095;-54
2023/01/30 10:23:33;;;;;;;21.30;14.60;;;;;;;1.00;89.46;99024.89;107513;1256;88518;-53
2023/01/30 10:26:21;;;;;;;22.50;14.40;;;;;;;1.00;89.43;99024.36;107577;1254;93752;-54
2023/01/30 10:29:00;;;;;;;21.10;14.30;;;;;;;0.95;89.53;99020.98;107574;1254;80747;-54
2023/01/30 10:31:42;;;;;;;22.10;14.50;;;;;;;0.94;89.62;99010.32;107588;1254;79798;-55
2023/01/30 10:34:20;;;;;;;24.50;15.40;;;;;;;0.95;89.67;99006.63;107565;1254;99652;-55
2023/01/30 10:37:01;;;;;;;23.20;15.10;;;;;;;1.01;89.86;99003.31;107542;1254;88172;-54
2023/01/30 10:39:52;;;;;;;26.00;17.20;;;;;;;1.02;90.09;98998.63;107548;1256;95093;-52
2023/01/30 10:42:38;;;;;;;20.80;14.60;;;;;;;1.05;89.84;98999.74;107469;1254;81294;-53
2023/01/30 10:45:20;;;;;;;26.20;15.90;;;;;;;1.10;89.71;98991.80;107604;1253;80532;-56
2023/01/30 10:48:20;;;;;;;24.60;15.00;;;;;;;1.12;89.81;98984.27;107549;1256;98429;-55
2023/01/30 10:51:00;;;;;;;20.00;13.40;;;;;;;1.13;89.97;98983.47;107616;1256;87654;-55
2023/01/30 10:53:42;;;;;;;24.80;15.10;;;;;;;1.16;89.90;98982.60;107559;1254;94694;-55
2023/01/30 10:56:31;;;;;;;38.70;20.00;;;;;;;1.19;89.89;98982.29;107532;1256;81169;-57
2023/01/30 10:59:27;;;;;;;23.50;14.90;;;;;;;1.26;89.90;98981.76;107591;1253;82318;-56
2023/01/30 11:02:22;;;;;;;21.30;14.30;;;;;;;1.30;89.97;98981.23;107572;1256;99372;-53
2023/01/30 11:05:00;;;;;;;21.60;14.00;;;;;;;1.33;90.02;98978.77;107564;1256;88476;-56
2023/01/30 11:07:33;;;;;;;21.60;14.30;;;;;;;1.36;90.09;98969.76;107565;1257;95343;-55
2023/01/30 11:10:18;;;;;;;19.20;14.50;;;;;;;1.42;90.02;98966.60;107567;1254;79340;-53
2023/01/30 11:12:57;;;;;;;19.40;12.80;;;;;;;1.41;90.02;98963.34;107561;1256;82109;-53
2023/01/30 11:15:50;;;;;;;17.00;12.10;;;;;;;1.44;90.04;98958.95;107560;1256;99629;-56
2023/01/30 11:18:27;;;;;;;16.90;11.90;;;;;;;1.50;90.19;98954.62;107596;1254;88105;-56
2023/01/30 11:21:05;;;;;;;17.30;10.80;;;;;;;1.54;90.06;98950.36;107575;1256;94936;-56
2023/01/30 11:23:41;;;;;;;15.30;10.90;;;;;;;1.55;90.07;98946.23;107570;1254;81716;-56
2023/01/30 11:26:27;;;;;;;15.60;10.60;;;;;;;1.62;90.08;98943.63;107587;1256;83146;-53
2023/01/30 11:29:16;;;;;;;13.80;9.50;;;;;;;1.68;90.16;98938.58;107477;1254;99945;-53
2023/01/30 11:31:53;;;;;;;14.70;10.20;;;;;;;1.73;90.14;98931.41;107589;1256;88103;-53
2023/01/30 11:34:31;;;;;;;16.00;10.50;;;;;;;1.79;90.09;98925.20;107589;1254;95725;-54
2023/01/30 11:37:27;;;;;;;15.80;10.40;;;;;;;1.82;89.89;98924.56;107549;1256;81619;-55
2023/01/30 11:39:59;;;;;;;;;;;;;;;1.82;89.91;98923.13;107625;1254;81941;-53
2023/01/30 11:42:37;;;;;;;9.70;7.40;;;;;;;1.89;89.87;98923.77;107521;1260;96836;-54
2023/01/30 11:45:16;;;;;;;12.50;9.30;;;;;;;1.91;90.02;98920.89;107593;1256;89133;-54
2023/01/30 11:47:57;;;;;;;13.70;8.80;;;;;;;1.90;89.93;98923.48;107094;1253;652565;-53
2023/01/30 11:50:36;;;;;;;12.70;8.70;;;;;;;1.94;89.97;98918.09;107585;1254;79777;-53
2023/01/30 11:53:21;;;;;;;11.60;9.20;;;;;;;1.92;89.94;98915.00;107569;1253;83253;-52
2023/01/30 11:55:58;;;;;;;13.00;9.20;;;;;;;1.89;89.87;98914.40;107522;1256;97712;-56
2023/01/30 11:58:37;;;;;;;12.60;8.60;;;;;;;1.86;89.96;98907.61;107583;1254;88101;-56
2023/01/30 12:01:17;;;;;;;10.30;8.60;;;;;;;1.88;89.91;98907.42;107552;1256;93677;-56
2023/01/30 12:04:00;;;;;;;12.80;9.70;;;;;;;1.86;89.67;98903.72;107517;1257;78498;-55
2023/01/30 12:06:34;;;;;;;11.50;8.80;;;;;;;1.79;89.79;98904.48;107436;1255;83443;-54
2023/01/30 12:09:33;;;;;;;13.20;9.90;;;;;;;1.71;89.96;98903.92;107559;1256;100381;-52
2023/01/30 12:12:29;;;;;;;13.70;9.80;;;;;;;1.63;90.14;98897.79;107555;1254;87867;-53
2023/01/30 12:15:22;;;;;;;13.10;10.00;;;;;;;1.62;90.18;98895.27;107609;1256;95294;-54
2023/01/30 12:18:10;;;;;;;15.30;9.20;;;;;;;1.60;90.09;98895.82;107580;1254;80086;-53
2023/01/30 12:20:55;;;;;;;13.90;10.20;;;;;;;1.59;90.13;98893.98;107582;1256;82654;-53
2023/01/30 12:23:41;;;;;;;14.30;10.40;;;;;;;1.61;90.19;98880.64;107592;1254;100097;-54
2023/01/30 12:26:22;;;;;;;13.70;9.60;;;;;;;1.62;90.30;98880.79;107624;1255;87401;-55